createdAt,value
2019-06-07T00:01:49.962Z,25.52
2019-06-07T00:04:23.518Z,30.62
2019-06-07T00:06:56.418Z,26.42
2019-06-07T00:09:28.616Z,25.12
2019-06-07T00:12:00.884Z,27.32
2019-06-07T00:14:34.217Z,28.50
2019-06-07T00:17:07.914Z,52.90
2019-06-07T00:19:39.870Z,57.48
2019-06-07T00:22:17.945Z,45.80
2019-06-07T00:24:45.821Z,58.50
2019-06-07T00:27:21.962Z,40.23
2019-06-07T00:29:51.992Z,47.83
2019-06-07T00:32:24.060Z,50.90
2019-06-07T00:34:55.844Z,40.80
2019-06-07T00:37:27.693Z,30.82
2019-06-07T00:40:13.867Z,26.12
2019-06-07T00:42:33.443Z,37.67
2019-06-07T00:45:06.509Z,38.92
2019-06-07T00:47:38.382Z,29.82
2019-06-07T00:50:11.131Z,23.42
2019-06-07T00:53:13.968Z,23.22
2019-06-07T00:55:20.033Z,22.58
2019-06-07T00:57:53.182Z,17.80
2019-06-07T01:00:25.648Z,19.90
2019-06-07T01:02:57.847Z,18.48
2019-06-07T01:05:31.582Z,22.25
2019-06-07T01:08:04.493Z,19.60
2019-06-07T01:10:52.839Z,22.00
2019-06-07T01:13:10.384Z,29.52
2019-06-07T01:15:42.571Z,19.50
2019-06-07T01:20:48.492Z,21.90
2019-06-07T01:24:01.422Z,16.12
2019-06-07T01:25:54.488Z,17.37
2019-06-07T01:28:27.756Z,23.10
2019-06-07T01:31:00.390Z,20.75
2019-06-07T01:33:50.256Z,22.30
2019-06-07T01:36:06.257Z,21.05
2019-06-07T01:38:38.300Z,23.77
2019-06-07T01:41:11.612Z,29.92
2019-06-07T01:43:45.815Z,18.55
2019-06-07T01:46:18.454Z,22.30
2019-06-07T01:48:52.186Z,19.75
2019-06-07T01:51:24.549Z,23.75
2019-06-07T01:54:47.636Z,22.77
2019-06-07T01:56:31.893Z,21.45
2019-06-07T01:59:03.852Z,19.52
2019-06-07T02:01:35.807Z,24.27
2019-06-07T02:04:07.777Z,19.57
2019-06-07T02:06:39.942Z,22.58
2019-06-07T02:09:11.985Z,26.85
2019-06-07T02:11:45.228Z,30.45
2019-06-07T02:14:34.020Z,21.23
2019-06-07T02:17:06.433Z,21.02
2019-06-07T02:19:39.398Z,20.80
2019-06-07T02:22:13.310Z,24.23
2019-06-07T02:24:45.431Z,27.65
2019-06-07T02:27:17.556Z,21.25
2019-06-07T02:29:49.416Z,24.98
2019-06-07T02:32:24.359Z,27.35
2019-06-07T02:34:56.659Z,19.52
2019-06-07T02:37:32.418Z,19.45
2019-06-07T02:40:04.222Z,21.90
2019-06-07T02:42:42.263Z,22.75
2019-06-07T02:45:11.845Z,27.82
2019-06-07T02:47:45.456Z,36.68
2019-06-07T02:50:17.669Z,20.72
2019-06-07T02:52:49.761Z,25.25
2019-06-07T02:55:21.653Z,34.33
2019-06-07T02:57:54.726Z,13.53
2019-06-07T03:01:07.742Z,18.57
2019-06-07T03:03:18.465Z,16.32
2019-06-07T03:05:50.447Z,15.58
2019-06-07T03:08:22.459Z,19.10
2019-06-07T03:10:54.376Z,21.15
2019-06-07T03:13:28.944Z,16.23
2019-06-07T03:16:01.311Z,13.45
2019-06-07T03:18:50.959Z,14.07
2019-06-07T03:21:24.674Z,11.12
2019-06-07T03:23:57.154Z,11.75
2019-06-07T03:26:31.319Z,10.40
2019-06-07T03:29:02.629Z,16.07
2019-06-07T03:31:41.637Z,11.22
2019-06-07T03:34:08.347Z,11.57
2019-06-07T03:36:40.455Z,10.63
2019-06-07T03:39:12.447Z,7.60
2019-06-07T03:42:04.573Z,16.30
2019-06-07T03:44:18.700Z,15.72
2019-06-07T03:46:50.884Z,20.85
2019-06-07T03:49:22.921Z,16.85
2019-06-07T03:51:54.837Z,16.02
2019-06-07T03:54:27.252Z,30.85
2019-06-07T03:56:59.320Z,13.15
2019-06-07T03:59:35.869Z,20.25
2019-06-07T04:02:05.109Z,12.07
2019-06-07T04:04:38.468Z,11.75
2019-06-07T04:07:10.542Z,15.15
2019-06-07T04:09:43.264Z,22.22
2019-06-07T04:12:15.584Z,10.50
2019-06-07T04:14:47.885Z,13.88
2019-06-07T04:17:19.788Z,18.85
2019-06-07T04:19:52.103Z,15.15
2019-06-07T04:22:26.157Z,20.40
2019-06-07T04:24:57.914Z,17.35
2019-06-07T04:27:30.636Z,22.25
2019-06-07T04:30:07.900Z,19.35
2019-06-07T04:32:39.456Z,23.83
2019-06-07T04:35:10.536Z,16.52
2019-06-07T04:37:42.943Z,21.35
2019-06-07T04:40:14.995Z,20.23
2019-06-07T04:42:46.938Z,29.02
2019-06-07T04:45:33.859Z,23.95
2019-06-07T04:47:52.640Z,19.23
2019-06-07T04:50:24.872Z,23.85
2019-06-07T04:52:57.086Z,19.00
2019-06-07T04:55:29.134Z,20.08
2019-06-07T04:58:01.245Z,22.82
2019-06-07T05:00:49.710Z,21.25
2019-06-07T05:03:08.866Z,22.17
2019-06-07T05:05:43.628Z,20.70
2019-06-07T05:08:27.517Z,21.60
2019-06-07T05:10:48.661Z,19.70
2019-06-07T05:13:20.453Z,16.07
2019-06-07T05:15:52.592Z,16.90
2019-06-07T05:18:24.532Z,18.05
2019-06-07T05:20:56.535Z,11.33
2019-06-07T05:24:04.911Z,8.53
2019-06-07T05:26:01.866Z,18.35
2019-06-07T05:28:35.149Z,18.10
2019-06-07T05:31:08.134Z,10.38
2019-06-07T05:33:41.303Z,10.88
2019-06-07T05:36:13.627Z,15.50
2019-06-07T05:38:45.511Z,13.10
2019-06-07T05:41:17.529Z,13.25
2019-06-07T05:44:09.178Z,14.03
2019-06-07T05:46:23.147Z,17.40
2019-06-07T05:48:55.134Z,8.65
2019-06-07T05:51:27.003Z,15.35
2019-06-07T05:53:59.092Z,13.32
2019-06-07T05:56:30.997Z,18.98
2019-06-07T05:59:02.990Z,13.43
2019-06-07T06:01:46.065Z,19.80
2019-06-07T06:04:08.984Z,12.28
2019-06-07T06:06:43.727Z,17.92
2019-06-07T06:09:14.880Z,11.83
2019-06-07T06:11:59.718Z,9.13
2019-06-07T06:14:20.304Z,12.37
2019-06-07T06:16:52.570Z,12.07
2019-06-07T06:19:24.557Z,14.63
2019-06-07T06:21:56.493Z,14.58
2019-06-07T06:24:28.470Z,11.75
2019-06-07T06:27:18.874Z,7.08
2019-06-07T06:29:34.210Z,11.20
2019-06-07T06:34:44.274Z,4.67
2019-06-07T06:37:14.819Z,11.65
2019-06-07T06:39:49.945Z,18.98
2019-06-07T06:42:20.191Z,23.05
2019-06-07T06:44:54.181Z,17.40
2019-06-07T06:47:26.251Z,9.88
2019-06-07T06:49:58.215Z,10.18
2019-06-07T06:52:30.331Z,13.58
2019-06-07T06:55:02.356Z,7.47
2019-06-07T06:57:34.405Z,7.67
2019-06-07T07:00:10.720Z,6.55
2019-06-07T07:05:15.722Z,6.37
2019-06-07T07:07:51.330Z,8.58
2019-06-07T07:10:24.751Z,10.30
2019-06-07T07:12:56.691Z,10.17
2019-06-07T07:15:28.700Z,11.70
2019-06-07T07:18:08.452Z,9.00
2019-06-07T07:20:33.968Z,10.00
2019-06-07T07:23:06.049Z,6.37
2019-06-07T07:25:37.779Z,6.55
2019-06-07T07:28:09.951Z,14.43
2019-06-07T07:30:44.896Z,13.08
2019-06-07T07:33:17.206Z,7.35
2019-06-07T07:36:13.926Z,6.70
2019-06-07T07:38:23.899Z,11.65
2019-06-07T07:41:06.947Z,11.88
2019-06-07T07:43:29.912Z,4.92
2019-06-07T07:46:03.262Z,19.87
2019-06-07T07:48:37.122Z,15.85
2019-06-07T07:51:09.290Z,16.27
2019-06-07T07:53:51.894Z,10.50
2019-06-07T07:56:16.212Z,7.67
2019-06-07T07:58:54.559Z,12.88
2019-06-07T08:01:22.175Z,7.95
2019-06-07T08:03:54.868Z,16.77
2019-06-07T08:06:28.001Z,11.68
2019-06-07T08:09:00.193Z,9.10
2019-06-07T08:11:32.268Z,9.93
2019-06-07T08:14:04.325Z,13.93
2019-06-07T08:16:36.595Z,14.53
2019-06-07T08:19:08.659Z,9.73
2019-06-07T08:21:40.926Z,5.90
2019-06-07T08:24:12.658Z,9.03
2019-06-07T08:27:06.291Z,17.23
2019-06-07T08:29:18.737Z,10.30
2019-06-07T08:31:52.944Z,7.17
2019-06-07T08:34:24.095Z,13.50
2019-06-07T08:36:59.171Z,6.53
2019-06-07T08:39:29.478Z,13.83
2019-06-07T08:42:15.376Z,6.83
2019-06-07T08:44:35.527Z,13.48
2019-06-07T08:47:20.105Z,16.80
2019-06-07T08:49:41.121Z,10.05
2019-06-07T08:52:13.999Z,17.23
2019-06-07T08:54:46.165Z,12.33
2019-06-07T08:57:21.575Z,23.27
2019-06-07T08:59:53.671Z,21.62
2019-06-07T09:02:26.007Z,13.25
2019-06-07T09:05:03.169Z,11.97
2019-06-07T09:07:33.897Z,13.28
2019-06-07T09:10:14.765Z,15.80
2019-06-07T09:12:42.848Z,10.82
2019-06-07T09:15:22.884Z,24.85
2019-06-07T09:20:36.395Z,8.43
2019-06-07T09:22:59.109Z,15.18
2019-06-07T09:25:29.228Z,10.20
2019-06-07T09:28:10.124Z,18.80
2019-06-07T09:30:40.370Z,13.65
2019-06-07T09:33:12.535Z,17.25
2019-06-07T09:35:44.495Z,19.07
2019-06-07T09:38:25.482Z,22.80
2019-06-07T09:40:50.441Z,16.90
2019-06-07T09:45:58.241Z,15.23
2019-06-07T09:51:08.756Z,13.18
2019-06-07T09:53:37.961Z,9.43
2019-06-07T09:56:12.212Z,9.98
2019-06-07T09:58:53.176Z,8.85
2019-06-07T10:01:17.535Z,6.55
2019-06-07T10:03:49.677Z,9.38
2019-06-07T10:06:21.812Z,11.83
2019-06-07T10:11:27.630Z,9.38
2019-06-07T10:14:00.337Z,7.72
2019-06-07T10:16:45.957Z,7.87
2019-06-07T10:19:09.729Z,13.68
2019-06-07T10:21:40.071Z,11.33
2019-06-07T10:24:12.036Z,10.50
2019-06-07T10:26:44.237Z,9.45
2019-06-07T10:29:16.272Z,6.22
2019-06-07T10:31:48.438Z,6.35
2019-06-07T10:34:20.528Z,5.42
2019-06-07T10:36:52.601Z,7.55
2019-06-07T10:39:26.374Z,9.85
2019-06-07T10:41:58.252Z,4.80
2019-06-07T10:44:32.713Z,6.80
2019-06-07T10:47:06.039Z,8.78
2019-06-07T10:49:38.644Z,3.10
2019-06-07T10:52:11.708Z,4.67
2019-06-07T10:54:45.337Z,5.83
2019-06-07T10:57:17.505Z,7.80
2019-06-07T10:59:49.672Z,4.50
2019-06-07T11:02:21.528Z,4.97
2019-06-07T11:04:53.583Z,5.42
2019-06-07T11:07:25.791Z,7.85
2019-06-07T11:10:08.349Z,7.70
2019-06-07T11:12:31.732Z,12.75
2019-06-07T11:15:04.603Z,9.48
2019-06-07T11:17:36.550Z,10.80
2019-06-07T11:20:10.161Z,14.43
2019-06-07T11:22:42.355Z,8.33
2019-06-07T11:25:14.757Z,11.43
2019-06-07T11:27:47.926Z,10.58
2019-06-07T11:30:19.895Z,10.82
2019-06-07T11:32:51.817Z,13.38
2019-06-07T11:35:24.008Z,3.95
2019-06-07T11:37:55.964Z,11.70
2019-06-07T11:40:35.112Z,5.58
2019-06-07T11:43:01.432Z,8.08
2019-06-07T11:45:33.380Z,9.10
2019-06-07T11:48:07.064Z,4.92
2019-06-07T11:50:39.129Z,11.25
2019-06-07T11:53:12.569Z,10.63
2019-06-07T11:55:44.852Z,12.50
2019-06-07T11:58:21.290Z,13.43
2019-06-07T12:00:50.462Z,7.70
2019-06-07T12:03:23.949Z,7.30
2019-06-07T12:05:56.340Z,5.92
2019-06-07T12:08:28.306Z,7.55
2019-06-07T12:11:00.282Z,10.05
2019-06-07T12:13:33.273Z,12.68
2019-06-07T12:16:05.308Z,7.28
2019-06-07T12:18:37.375Z,9.60
2019-06-07T12:21:09.617Z,7.97
2019-06-07T12:23:41.815Z,14.65
2019-06-07T12:26:16.595Z,8.18
2019-06-07T12:28:48.526Z,9.93
2019-06-07T12:31:21.182Z,11.48
2019-06-07T12:33:53.420Z,10.98
2019-06-07T12:36:25.642Z,7.55
2019-06-07T12:38:57.708Z,4.85
2019-06-07T12:41:29.674Z,10.72
2019-06-07T12:44:01.760Z,18.40
2019-06-07T12:46:33.899Z,5.42
2019-06-07T12:49:06.059Z,6.28
2019-06-07T12:51:38.113Z,9.85
2019-06-07T12:54:10.406Z,10.50
2019-06-07T12:56:42.553Z,9.98
2019-06-07T12:59:15.886Z,9.20
2019-06-07T13:01:48.131Z,6.65
2019-06-07T13:04:20.547Z,13.20
2019-06-07T13:06:52.753Z,6.00
2019-06-07T13:09:24.945Z,17.30
2019-06-07T13:11:57.313Z,9.25
2019-06-07T13:14:29.391Z,8.88
2019-06-07T13:17:01.544Z,5.70
2019-06-07T13:19:33.712Z,5.85
2019-06-07T13:22:05.761Z,8.53
2019-06-07T13:24:38.030Z,8.58
2019-06-07T13:27:11.173Z,11.15
2019-06-07T13:29:43.276Z,17.73
2019-06-07T13:32:15.634Z,5.72
2019-06-07T13:34:47.945Z,5.08
2019-06-07T13:37:21.186Z,6.80
2019-06-07T13:39:53.221Z,7.35
2019-06-07T13:42:25.367Z,6.97
2019-06-07T13:44:57.421Z,10.43
2019-06-07T13:47:31.238Z,15.63
2019-06-07T13:50:05.874Z,10.15
2019-06-07T13:52:40.042Z,8.20
2019-06-07T13:55:12.050Z,12.30
2019-06-07T13:57:44.313Z,20.48
2019-06-07T14:00:16.561Z,20.45
2019-06-07T14:02:50.253Z,14.60
2019-06-07T14:05:23.063Z,12.70
2019-06-07T14:07:55.129Z,13.15
2019-06-07T14:10:27.565Z,11.65
2019-06-07T14:12:59.548Z,15.70
2019-06-07T14:15:34.103Z,14.75
2019-06-07T14:18:05.397Z,20.48
2019-06-07T14:20:37.509Z,25.95
2019-06-07T14:23:09.429Z,16.05
2019-06-07T14:25:41.299Z,22.58
2019-06-07T14:28:13.552Z,18.12
2019-06-07T14:30:45.595Z,22.10
2019-06-07T14:33:17.621Z,20.40
2019-06-07T14:35:49.481Z,29.27
2019-06-07T14:38:21.241Z,23.67
2019-06-07T14:40:53.041Z,24.57
2019-06-07T14:43:25.159Z,28.38
2019-06-07T14:45:57.197Z,21.25
2019-06-07T14:48:30.357Z,23.30
2019-06-07T14:51:02.485Z,23.25
2019-06-07T14:53:35.117Z,17.60
2019-06-07T14:56:09.084Z,22.20
2019-06-07T14:58:43.500Z,13.85
2019-06-07T15:01:14.727Z,9.43
2019-06-07T15:03:46.910Z,16.55
2019-06-07T15:06:20.982Z,17.98
2019-06-07T15:08:53.071Z,15.13
2019-06-07T15:11:25.253Z,13.90
2019-06-07T15:13:57.476Z,23.60
2019-06-07T15:16:30.138Z,16.07
2019-06-07T15:19:03.532Z,14.15
2019-06-07T15:21:36.626Z,14.68
2019-06-07T15:24:09.241Z,22.60
2019-06-07T15:26:41.125Z,18.50
2019-06-07T15:29:13.201Z,14.60
2019-06-07T15:31:45.208Z,16.32
2019-06-07T15:34:17.158Z,19.15
2019-06-07T15:36:49.294Z,21.23
2019-06-07T15:39:21.186Z,15.72
2019-06-07T15:41:53.231Z,14.80
2019-06-07T15:44:25.204Z,16.62
2019-06-07T15:46:57.189Z,17.55
2019-06-07T15:49:30.306Z,21.30
2019-06-07T15:52:02.349Z,17.23
2019-06-07T15:54:34.403Z,21.57
2019-06-07T15:57:06.450Z,19.92
2019-06-07T15:59:39.426Z,19.10
2019-06-07T16:02:11.514Z,16.45
2019-06-07T16:04:43.430Z,15.45
2019-06-07T16:07:15.576Z,16.57
2019-06-07T16:09:47.505Z,12.75
2019-06-07T16:12:19.506Z,24.98
2019-06-07T16:14:51.475Z,15.18
2019-06-07T16:17:23.377Z,17.67
2019-06-07T16:19:57.222Z,31.37
2019-06-07T16:22:29.335Z,22.58
2019-06-07T16:25:01.301Z,25.62
2019-06-07T16:27:34.371Z,25.30
2019-06-07T16:30:09.477Z,26.90
2019-06-07T16:32:44.214Z,19.65
2019-06-07T16:35:16.732Z,25.48
2019-06-07T16:37:52.117Z,19.75
2019-06-07T16:40:23.449Z,25.57
2019-06-07T16:42:57.320Z,21.50
2019-06-07T16:45:30.283Z,24.55
2019-06-07T16:48:02.160Z,24.90
2019-06-07T16:50:34.377Z,23.40
2019-06-07T16:53:06.516Z,20.25
2019-06-07T16:55:38.855Z,18.90
2019-06-07T16:58:10.999Z,23.60
2019-06-07T17:00:44.167Z,21.93
2019-06-07T17:03:16.126Z,23.42
2019-06-07T17:05:50.311Z,29.18
2019-06-07T17:08:22.216Z,25.48
2019-06-07T17:10:54.656Z,30.15
2019-06-07T17:13:33.313Z,23.60
2019-06-07T17:16:00.236Z,28.77
2019-06-07T17:18:36.317Z,25.80
2019-06-07T17:21:06.774Z,27.77
2019-06-07T17:23:39.159Z,27.90
2019-06-07T17:26:11.000Z,32.20
2019-06-07T17:28:43.661Z,33.78
2019-06-07T17:31:15.759Z,30.80
2019-06-07T17:33:50.133Z,31.00
2019-06-07T17:36:23.069Z,29.25
2019-06-07T17:38:57.336Z,27.30
2019-06-07T17:41:32.823Z,27.55
2019-06-07T17:44:03.429Z,29.77
2019-06-07T17:46:35.612Z,29.80
2019-06-07T17:49:08.579Z,28.15
2019-06-07T17:51:41.783Z,36.15
2019-06-07T17:54:16.133Z,26.23
2019-06-07T17:56:48.588Z,34.05
2019-06-07T17:59:20.409Z,30.52
2019-06-07T18:02:13.506Z,33.08
2019-06-07T18:04:26.019Z,30.08
2019-06-07T18:06:58.378Z,33.98
2019-06-07T18:09:30.280Z,33.63
2019-06-07T18:12:02.407Z,31.93
2019-06-07T18:14:34.719Z,26.02
2019-06-07T18:17:07.147Z,40.20
2019-06-07T18:19:39.302Z,29.45
2019-06-07T18:22:13.482Z,36.25
2019-06-07T18:24:46.540Z,25.30
2019-06-07T18:27:18.517Z,29.48
2019-06-07T18:29:50.634Z,29.45
2019-06-07T18:32:22.653Z,31.23
2019-06-07T18:34:56.080Z,30.00
2019-06-07T18:37:27.883Z,29.77
2019-06-07T18:40:00.454Z,31.27
2019-06-07T18:42:33.644Z,39.55
2019-06-07T18:45:09.470Z,34.80
2019-06-07T18:47:41.533Z,30.65
2019-06-07T18:50:13.768Z,28.75
2019-06-07T18:52:46.741Z,38.33
2019-06-07T18:55:19.915Z,25.82
2019-06-07T18:57:52.177Z,33.20
2019-06-07T19:00:26.023Z,27.67
2019-06-07T19:02:58.214Z,45.98
2019-06-07T19:05:31.217Z,34.03
2019-06-07T19:08:03.206Z,35.13
2019-06-07T19:10:35.196Z,50.85
2019-06-07T19:13:07.175Z,35.58
2019-06-07T19:15:39.132Z,47.55
2019-06-07T19:18:35.559Z,42.93
2019-06-07T19:21:07.486Z,58.33
2019-06-07T19:23:39.421Z,45.35
2019-06-07T19:26:11.332Z,47.33
2019-06-07T19:28:43.344Z,46.25
2019-06-07T19:31:15.548Z,50.95
2019-06-07T19:33:49.381Z,38.33
2019-06-07T19:36:21.369Z,46.53
2019-06-07T19:38:53.874Z,32.73
2019-06-07T19:41:25.908Z,36.17
2019-06-07T19:43:58.268Z,31.68
2019-06-07T19:46:30.293Z,29.20
2019-06-07T19:49:03.086Z,23.90
2019-06-07T19:51:35.906Z,24.82
2019-06-07T19:54:07.747Z,21.07
2019-06-07T19:56:39.792Z,27.70
2019-06-07T19:59:11.785Z,19.12
2019-06-07T20:01:43.730Z,20.30
2019-06-07T20:04:15.732Z,21.77
2019-06-07T20:06:47.656Z,29.00
2019-06-07T20:09:19.639Z,23.27
2019-06-07T20:11:51.716Z,20.37
2019-06-07T20:14:23.693Z,22.75
2019-06-07T20:16:57.136Z,30.30
2019-06-07T20:19:29.205Z,36.30
2019-06-07T20:22:01.332Z,33.75
2019-06-07T20:24:33.375Z,44.48
2019-06-07T20:27:05.378Z,52.45
2019-06-07T20:29:37.685Z,38.40
2019-06-07T20:32:09.973Z,33.85
2019-06-07T20:34:44.695Z,95.50
2019-06-07T20:37:15.481Z,37.80
2019-06-07T20:39:47.571Z,42.27
2019-06-07T20:42:19.465Z,36.20
2019-06-07T20:44:51.283Z,31.80
2019-06-07T20:47:23.255Z,26.15
2019-06-07T20:49:55.243Z,24.00
2019-06-07T20:52:27.161Z,16.97
2019-06-07T20:55:00.459Z,25.95
2019-06-07T20:57:32.661Z,23.12
2019-06-07T21:00:14.279Z,21.87
2019-06-07T21:02:40.303Z,34.27
2019-06-07T21:05:12.402Z,24.32
2019-06-07T21:07:45.217Z,28.50
2019-06-07T21:10:17.154Z,33.33
2019-06-07T21:12:49.161Z,41.37
2019-06-07T21:15:21.142Z,32.98
2019-06-07T21:17:53.072Z,32.65
2019-06-07T21:20:25.395Z,34.60
2019-06-07T21:22:59.019Z,37.13
2019-06-07T21:25:31.556Z,27.60
2019-06-07T21:28:03.502Z,30.27
2019-06-07T21:30:35.319Z,27.30
2019-06-07T21:33:07.669Z,27.27
2019-06-07T21:35:39.817Z,30.75
2019-06-07T21:38:12.674Z,31.55
2019-06-07T21:40:45.349Z,29.23
2019-06-07T21:43:17.320Z,18.75
2019-06-07T21:46:01.529Z,24.82
2019-06-07T21:48:23.005Z,24.63
2019-06-07T21:50:54.957Z,25.32
2019-06-07T21:53:26.799Z,22.50
2019-06-07T21:55:58.851Z,22.05
2019-06-07T21:58:30.860Z,25.70
2019-06-07T22:01:08.049Z,19.32
2019-06-07T22:03:42.082Z,29.67
2019-06-07T22:06:16.668Z,25.90
2019-06-07T22:08:49.035Z,29.20
2019-06-07T22:11:21.282Z,21.10
2019-06-07T22:13:53.471Z,25.70
2019-06-07T22:16:29.242Z,22.98
2019-06-07T22:18:59.383Z,21.65
2019-06-07T22:21:31.870Z,22.95
2019-06-07T22:24:06.700Z,19.65
2019-06-07T22:26:39.021Z,21.65
2019-06-07T22:29:12.353Z,23.27
2019-06-07T22:31:44.532Z,19.32
2019-06-07T22:34:17.420Z,19.23
2019-06-07T22:36:49.611Z,24.52
2019-06-07T22:39:24.417Z,26.25
2019-06-07T22:41:56.449Z,14.53
2019-06-07T22:44:28.440Z,19.62
2019-06-07T22:47:00.481Z,19.98
2019-06-07T22:49:32.458Z,20.30
2019-06-07T22:52:08.651Z,20.43
2019-06-07T22:54:38.113Z,19.48
2019-06-07T22:57:16.525Z,19.15
2019-06-07T22:59:48.925Z,22.10
2019-06-07T23:02:22.182Z,26.30
2019-06-07T23:04:55.000Z,24.63
2019-06-07T23:07:27.307Z,30.62
2019-06-07T23:09:59.854Z,29.27
2019-06-07T23:12:32.047Z,40.70
2019-06-07T23:15:06.115Z,28.95
2019-06-07T23:17:38.249Z,38.80
2019-06-07T23:20:11.717Z,53.60
2019-06-07T23:22:44.107Z,48.10
2019-06-07T23:25:19.926Z,41.42
2019-06-07T23:27:49.547Z,60.60
2019-06-07T23:30:21.797Z,39.92
2019-06-07T23:32:53.946Z,36.93
2019-06-07T23:35:25.951Z,41.15
2019-06-07T23:37:57.873Z,59.58
2019-06-07T23:40:30.817Z,53.70
2019-06-07T23:43:04.732Z,54.83
2019-06-07T23:45:36.731Z,42.80
2019-06-07T23:48:08.975Z,54.48
2019-06-07T23:50:41.928Z,54.53
2019-06-07T23:53:14.179Z,54.55
2019-06-07T23:55:46.297Z,91.65
2019-06-07T23:58:18.583Z,56.40
